sensor_id;sensor_type;location;lat;lon;timestamp;P1;durP1;ratioP1;P2;durP2;ratioP2
2187;SDS011;1100;52.014;8.540;2022-12-10T00:01:45;39.00;;;16.13;;
2187;SDS011;1100;52.014;8.540;2022-12-10T00:04:11;40.28;;;15.52;;
2187;SDS011;1100;52.014;8.540;2022-12-10T00:06:37;41.53;;;16.25;;
2187;SDS011;1100;52.014;8.540;2022-12-10T00:09:05;42.50;;;15.63;;
2187;SDS011;1100;52.014;8.540;2022-12-10T00:11:32;37.15;;;15.20;;
2187;SDS011;1100;52.014;8.540;2022-12-10T00:13:58;40.20;;;15.20;;
2187;SDS011;1100;52.014;8.540;2022-12-10T00:16:25;40.25;;;15.02;;
2187;SDS011;1100;52.014;8.540;2022-12-10T00:18:51;41.70;;;16.13;;
2187;SDS011;1100;52.014;8.540;2022-12-10T00:21:19;40.88;;;16.48;;
2187;SDS011;1100;52.014;8.540;2022-12-10T00:23:48;42.63;;;16.60;;
2187;SDS011;1100;52.014;8.540;2022-12-10T00:26:14;38.93;;;16.63;;
2187;SDS011;1100;52.014;8.540;2022-12-10T00:28:42;43.65;;;17.08;;
2187;SDS011;1100;52.014;8.540;2022-12-10T00:31:09;41.08;;;16.95;;
2187;SDS011;1100;52.014;8.540;2022-12-10T00:33:37;41.92;;;16.23;;
2187;SDS011;1100;52.014;8.540;2022-12-10T00:36:06;41.17;;;17.13;;
2187;SDS011;1100;52.014;8.540;2022-12-10T00:38:33;36.33;;;15.73;;
2187;SDS011;1100;52.014;8.540;2022-12-10T00:40:59;43.35;;;16.50;;
2187;SDS011;1100;52.014;8.540;2022-12-10T00:45:52;45.63;;;16.88;;
2187;SDS011;1100;52.014;8.540;2022-12-10T00:48:17;45.70;;;17.55;;
2187;SDS011;1100;52.014;8.540;2022-12-10T00:50:43;44.87;;;16.77;;
2187;SDS011;1100;52.014;8.540;2022-12-10T00:53:08;44.43;;;17.90;;
2187;SDS011;1100;52.014;8.540;2022-12-10T00:55:33;43.93;;;16.73;;
2187;SDS011;1100;52.014;8.540;2022-12-10T00:57:59;45.67;;;17.33;;
2187;SDS011;1100;52.014;8.540;2022-12-10T01:00:24;43.20;;;17.37;;
2187;SDS011;1100;52.014;8.540;2022-12-10T01:02:49;41.50;;;17.23;;
2187;SDS011;1100;52.014;8.540;2022-12-10T01:05:15;44.77;;;17.00;;
2187;SDS011;1100;52.014;8.540;2022-12-10T01:07:40;41.70;;;18.13;;
2187;SDS011;1100;52.014;8.540;2022-12-10T01:10:06;41.23;;;17.40;;
2187;SDS011;1100;52.014;8.540;2022-12-10T01:12:32;43.22;;;17.90;;
2187;SDS011;1100;52.014;8.540;2022-12-10T01:14:57;45.67;;;18.70;;
2187;SDS011;1100;52.014;8.540;2022-12-10T01:17:22;42.47;;;15.97;;
2187;SDS011;1100;52.014;8.540;2022-12-10T01:19:47;47.87;;;18.00;;
2187;SDS011;1100;52.014;8.540;2022-12-10T01:22:13;43.97;;;18.07;;
2187;SDS011;1100;52.014;8.540;2022-12-10T01:24:38;44.27;;;18.00;;
2187;SDS011;1100;52.014;8.540;2022-12-10T01:27:03;47.80;;;18.10;;
2187;SDS011;1100;52.014;8.540;2022-12-10T01:29:29;41.90;;;17.93;;
2187;SDS011;1100;52.014;8.540;2022-12-10T01:31:55;44.27;;;17.10;;
2187;SDS011;1100;52.014;8.540;2022-12-10T01:34:22;50.10;;;18.42;;
2187;SDS011;1100;52.014;8.540;2022-12-10T01:36:49;39.25;;;17.13;;
2187;SDS011;1100;52.014;8.540;2022-12-10T01:39:17;46.72;;;18.35;;
2187;SDS011;1100;52.014;8.540;2022-12-10T01:41:48;45.47;;;17.47;;
2187;SDS011;1100;52.014;8.540;2022-12-10T01:46:42;47.23;;;18.43;;
2187;SDS011;1100;52.014;8.540;2022-12-10T01:49:17;47.45;;;19.05;;
2187;SDS011;1100;52.014;8.540;2022-12-10T01:51:44;44.05;;;16.17;;
2187;SDS011;1100;52.014;8.540;2022-12-10T01:54:33;45.80;;;18.17;;
2187;SDS011;1100;52.014;8.540;2022-12-10T01:57:08;41.07;;;17.00;;
2187;SDS011;1100;52.014;8.540;2022-12-10T01:59:36;48.38;;;18.35;;
2187;SDS011;1100;52.014;8.540;2022-12-10T02:05:05;47.08;;;17.27;;
2187;SDS011;1100;52.014;8.540;2022-12-10T02:13:30;41.50;;;16.33;;
2187;SDS011;1100;52.014;8.540;2022-12-10T02:16:03;47.25;;;17.30;;
2187;SDS011;1100;52.014;8.540;2022-12-10T02:18:37;42.10;;;16.48;;
2187;SDS011;1100;52.014;8.540;2022-12-10T02:21:10;41.10;;;16.58;;
2187;SDS011;1100;52.014;8.540;2022-12-10T02:23:41;39.53;;;15.17;;
2187;SDS011;1100;52.014;8.540;2022-12-10T02:31:21;41.10;;;15.60;;
2187;SDS011;1100;52.014;8.540;2022-12-10T02:33:53;42.20;;;15.77;;
2187;SDS011;1100;52.014;8.540;2022-12-10T02:36:23;37.90;;;15.63;;
2187;SDS011;1100;52.014;8.540;2022-12-10T02:38:52;39.08;;;15.40;;
2187;SDS011;1100;52.014;8.540;2022-12-10T02:41:32;42.05;;;16.50;;
2187;SDS011;1100;52.014;8.540;2022-12-10T02:44:00;44.25;;;16.98;;
2187;SDS011;1100;52.014;8.540;2022-12-10T02:46:30;42.47;;;16.02;;
2187;SDS011;1100;52.014;8.540;2022-12-10T02:48:58;42.27;;;17.00;;
2187;SDS011;1100;52.014;8.540;2022-12-10T02:51:28;46.15;;;16.67;;
2187;SDS011;1100;52.014;8.540;2022-12-10T02:54:00;40.00;;;16.37;;
2187;SDS011;1100;52.014;8.540;2022-12-10T02:56:35;41.20;;;17.42;;
2187;SDS011;1100;52.014;8.540;2022-12-10T03:04:16;44.90;;;17.20;;
2187;SDS011;1100;52.014;8.540;2022-12-10T03:07:18;43.25;;;16.15;;
2187;SDS011;1100;52.014;8.540;2022-12-10T03:09:53;43.70;;;16.73;;
2187;SDS011;1100;52.014;8.540;2022-12-10T03:12:29;42.22;;;16.73;;
2187;SDS011;1100;52.014;8.540;2022-12-10T03:15:00;45.92;;;17.58;;
2187;SDS011;1100;52.014;8.540;2022-12-10T03:17:30;41.50;;;15.77;;
2187;SDS011;1100;52.014;8.540;2022-12-10T03:19:57;37.95;;;14.82;;
2187;SDS011;1100;52.014;8.540;2022-12-10T03:22:24;42.43;;;16.40;;
2187;SDS011;1100;52.014;8.540;2022-12-10T03:24:51;42.83;;;16.25;;
2187;SDS011;1100;52.014;8.540;2022-12-10T03:27:18;41.03;;;16.13;;
2187;SDS011;1100;52.014;8.540;2022-12-10T03:29:47;39.33;;;16.70;;
2187;SDS011;1100;52.014;8.540;2022-12-10T03:32:15;38.58;;;15.10;;
2187;SDS011;1100;52.014;8.540;2022-12-10T03:34:43;40.47;;;16.47;;
2187;SDS011;1100;52.014;8.540;2022-12-10T03:37:09;41.45;;;17.15;;
2187;SDS011;1100;52.014;8.540;2022-12-10T03:39:36;37.05;;;15.57;;
2187;SDS011;1100;52.014;8.540;2022-12-10T03:42:03;40.03;;;15.38;;
2187;SDS011;1100;52.014;8.540;2022-12-10T03:44:31;38.03;;;15.95;;
2187;SDS011;1100;52.014;8.540;2022-12-10T03:46:58;38.50;;;15.10;;
2187;SDS011;1100;52.014;8.540;2022-12-10T03:49:24;42.70;;;17.60;;
2187;SDS011;1100;52.014;8.540;2022-12-10T03:51:49;41.95;;;15.88;;
2187;SDS011;1100;52.014;8.540;2022-12-10T03:54:15;45.60;;;16.73;;
2187;SDS011;1100;52.014;8.540;2022-12-10T03:56:40;39.30;;;15.97;;
2187;SDS011;1100;52.014;8.540;2022-12-10T03:59:06;40.17;;;15.57;;
2187;SDS011;1100;52.014;8.540;2022-12-10T04:01:31;44.08;;;16.33;;
2187;SDS011;1100;52.014;8.540;2022-12-10T04:03:57;41.47;;;16.60;;
2187;SDS011;1100;52.014;8.540;2022-12-10T04:06:22;43.60;;;16.00;;
2187;SDS011;1100;52.014;8.540;2022-12-10T04:08:48;40.80;;;15.73;;
2187;SDS011;1100;52.014;8.540;2022-12-10T04:11:14;40.57;;;16.53;;
2187;SDS011;1100;52.014;8.540;2022-12-10T04:13:40;39.38;;;15.25;;
2187;SDS011;1100;52.014;8.540;2022-12-10T04:16:25;40.40;;;14.93;;
2187;SDS011;1100;52.014;8.540;2022-12-10T04:19:04;41.28;;;14.73;;
2187;SDS011;1100;52.014;8.540;2022-12-10T04:21:33;41.03;;;16.30;;
2187;SDS011;1100;52.014;8.540;2022-12-10T04:24:19;41.25;;;14.77;;
2187;SDS011;1100;52.014;8.540;2022-12-10T04:27:07;39.15;;;16.17;;
2187;SDS011;1100;52.014;8.540;2022-12-10T04:29:34;40.45;;;14.80;;
2187;SDS011;1100;52.014;8.540;2022-12-10T04:32:00;40.30;;;15.23;;
2187;SDS011;1100;52.014;8.540;2022-12-10T04:34:25;39.23;;;15.63;;
2187;SDS011;1100;52.014;8.540;2022-12-10T04:36:51;40.67;;;15.73;;
2187;SDS011;1100;52.014;8.540;2022-12-10T04:39:17;41.28;;;15.50;;
2187;SDS011;1100;52.014;8.540;2022-12-10T04:41:43;35.40;;;15.70;;
2187;SDS011;1100;52.014;8.540;2022-12-10T04:44:10;40.90;;;16.00;;
2187;SDS011;1100;52.014;8.540;2022-12-10T04:46:38;42.63;;;16.25;;
2187;SDS011;1100;52.014;8.540;2022-12-10T04:49:04;45.15;;;17.33;;
2187;SDS011;1100;52.014;8.540;2022-12-10T04:51:30;40.58;;;16.50;;
2187;SDS011;1100;52.014;8.540;2022-12-10T04:53:56;39.30;;;15.07;;
2187;SDS011;1100;52.014;8.540;2022-12-10T04:56:22;39.80;;;15.23;;
2187;SDS011;1100;52.014;8.540;2022-12-10T04:58:47;41.43;;;15.93;;
2187;SDS011;1100;52.014;8.540;2022-12-10T05:01:12;37.27;;;15.17;;
2187;SDS011;1100;52.014;8.540;2022-12-10T05:03:38;37.93;;;15.87;;
2187;SDS011;1100;52.014;8.540;2022-12-10T05:06:04;38.33;;;14.50;;
2187;SDS011;1100;52.014;8.540;2022-12-10T05:08:31;37.33;;;14.85;;
2187;SDS011;1100;52.014;8.540;2022-12-10T05:11:00;42.70;;;16.00;;
2187;SDS011;1100;52.014;8.540;2022-12-10T05:13:27;35.88;;;14.75;;
2187;SDS011;1100;52.014;8.540;2022-12-10T05:15:52;37.78;;;15.40;;
2187;SDS011;1100;52.014;8.540;2022-12-10T05:18:18;37.10;;;15.37;;
2187;SDS011;1100;52.014;8.540;2022-12-10T05:20:43;38.50;;;14.40;;
2187;SDS011;1100;52.014;8.540;2022-12-10T05:23:08;37.17;;;15.13;;
2187;SDS011;1100;52.014;8.540;2022-12-10T05:28:37;35.80;;;14.25;;
2187;SDS011;1100;52.014;8.540;2022-12-10T05:31:13;36.17;;;14.13;;
2187;SDS011;1100;52.014;8.540;2022-12-10T05:33:41;32.83;;;14.23;;
2187;SDS011;1100;52.014;8.540;2022-12-10T05:36:08;38.75;;;14.25;;
2187;SDS011;1100;52.014;8.540;2022-12-10T05:38:36;35.50;;;14.07;;
2187;SDS011;1100;52.014;8.540;2022-12-10T05:41:02;34.17;;;14.05;;
2187;SDS011;1100;52.014;8.540;2022-12-10T05:43:31;33.73;;;13.20;;
2187;SDS011;1100;52.014;8.540;2022-12-10T05:46:00;33.30;;;13.70;;
2187;SDS011;1100;52.014;8.540;2022-12-10T05:48:27;35.30;;;13.63;;
2187;SDS011;1100;52.014;8.540;2022-12-10T05:50:53;32.23;;;13.53;;
2187;SDS011;1100;52.014;8.540;2022-12-10T05:53:18;35.97;;;13.80;;
2187;SDS011;1100;52.014;8.540;2022-12-10T05:55:43;34.60;;;13.33;;
2187;SDS011;1100;52.014;8.540;2022-12-10T05:58:09;33.63;;;14.00;;
2187;SDS011;1100;52.014;8.540;2022-12-10T06:00:35;36.80;;;15.02;;
2187;SDS011;1100;52.014;8.540;2022-12-10T06:03:03;41.30;;;13.88;;
2187;SDS011;1100;52.014;8.540;2022-12-10T06:05:28;36.73;;;14.23;;
2187;SDS011;1100;52.014;8.540;2022-12-10T06:07:53;35.70;;;15.07;;
2187;SDS011;1100;52.014;8.540;2022-12-10T06:10:19;37.57;;;14.33;;
2187;SDS011;1100;52.014;8.540;2022-12-10T06:12:44;33.10;;;13.73;;
2187;SDS011;1100;52.014;8.540;2022-12-10T06:15:09;35.65;;;14.15;;
2187;SDS011;1100;52.014;8.540;2022-12-10T06:17:35;38.53;;;14.70;;
2187;SDS011;1100;52.014;8.540;2022-12-10T06:20:01;36.13;;;14.33;;
2187;SDS011;1100;52.014;8.540;2022-12-10T06:22:26;35.13;;;14.77;;
2187;SDS011;1100;52.014;8.540;2022-12-10T06:24:51;39.60;;;15.33;;
2187;SDS011;1100;52.014;8.540;2022-12-10T06:27:17;42.00;;;15.93;;
2187;SDS011;1100;52.014;8.540;2022-12-10T06:29:42;40.03;;;15.43;;
2187;SDS011;1100;52.014;8.540;2022-12-10T06:32:09;37.88;;;14.32;;
2187;SDS011;1100;52.014;8.540;2022-12-10T06:34:34;36.80;;;14.90;;
2187;SDS011;1100;52.014;8.540;2022-12-10T06:37:00;34.77;;;14.23;;
2187;SDS011;1100;52.014;8.540;2022-12-10T06:39:25;39.63;;;14.00;;
2187;SDS011;1100;52.014;8.540;2022-12-10T06:41:54;32.53;;;14.18;;
2187;SDS011;1100;52.014;8.540;2022-12-10T06:44:19;36.40;;;13.87;;
2187;SDS011;1100;52.014;8.540;2022-12-10T06:46:45;35.10;;;14.07;;
2187;SDS011;1100;52.014;8.540;2022-12-10T06:49:10;36.45;;;14.38;;
2187;SDS011;1100;52.014;8.540;2022-12-10T06:51:36;32.40;;;13.60;;
2187;SDS011;1100;52.014;8.540;2022-12-10T06:54:03;35.00;;;13.60;;
2187;SDS011;1100;52.014;8.540;2022-12-10T06:56:29;35.33;;;13.88;;
2187;SDS011;1100;52.014;8.540;2022-12-10T06:58:54;34.50;;;12.30;;
2187;SDS011;1100;52.014;8.540;2022-12-10T07:01:21;32.83;;;13.20;;
2187;SDS011;1100;52.014;8.540;2022-12-10T07:03:51;30.63;;;12.52;;
2187;SDS011;1100;52.014;8.540;2022-12-10T07:06:18;31.13;;;12.07;;
2187;SDS011;1100;52.014;8.540;2022-12-10T07:08:44;30.92;;;11.25;;
2187;SDS011;1100;52.014;8.540;2022-12-10T07:11:11;34.10;;;12.23;;
2187;SDS011;1100;52.014;8.540;2022-12-10T07:13:38;32.83;;;12.48;;
2187;SDS011;1100;52.014;8.540;2022-12-10T07:16:10;30.73;;;12.83;;
2187;SDS011;1100;52.014;8.540;2022-12-10T07:18:37;32.05;;;12.98;;
2187;SDS011;1100;52.014;8.540;2022-12-10T07:21:12;36.73;;;13.30;;
2187;SDS011;1100;52.014;8.540;2022-12-10T07:23:43;34.03;;;12.63;;
2187;SDS011;1100;52.014;8.540;2022-12-10T07:26:09;30.03;;;11.83;;
2187;SDS011;1100;52.014;8.540;2022-12-10T07:28:37;28.57;;;11.80;;
2187;SDS011;1100;52.014;8.540;2022-12-10T07:31:03;29.90;;;12.13;;
2187;SDS011;1100;52.014;8.540;2022-12-10T07:33:30;32.28;;;11.98;;
2187;SDS011;1100;52.014;8.540;2022-12-10T07:35:56;31.57;;;12.57;;
2187;SDS011;1100;52.014;8.540;2022-12-10T07:38:28;28.95;;;11.70;;
2187;SDS011;1100;52.014;8.540;2022-12-10T07:40:53;33.83;;;12.93;;
2187;SDS011;1100;52.014;8.540;2022-12-10T07:43:18;30.40;;;11.97;;
2187;SDS011;1100;52.014;8.540;2022-12-10T07:45:43;34.63;;;13.73;;
2187;SDS011;1100;52.014;8.540;2022-12-10T07:48:09;32.10;;;13.40;;
2187;SDS011;1100;52.014;8.540;2022-12-10T07:50:35;35.37;;;14.27;;
2187;SDS011;1100;52.014;8.540;2022-12-10T07:53:00;33.35;;;13.60;;
2187;SDS011;1100;52.014;8.540;2022-12-10T07:55:25;36.33;;;13.37;;
2187;SDS011;1100;52.014;8.540;2022-12-10T07:57:51;33.17;;;13.13;;
2187;SDS011;1100;52.014;8.540;2022-12-10T08:00:18;32.10;;;13.53;;
2187;SDS011;1100;52.014;8.540;2022-12-10T08:02:44;40.40;;;13.98;;
2187;SDS011;1100;52.014;8.540;2022-12-10T08:05:09;35.87;;;14.07;;
2187;SDS011;1100;52.014;8.540;2022-12-10T08:07:35;36.28;;;14.10;;
2187;SDS011;1100;52.014;8.540;2022-12-10T08:10:03;35.75;;;14.02;;
2187;SDS011;1100;52.014;8.540;2022-12-10T08:12:29;37.10;;;14.93;;
2187;SDS011;1100;52.014;8.540;2022-12-10T08:14:55;32.72;;;13.57;;
2187;SDS011;1100;52.014;8.540;2022-12-10T08:17:20;30.37;;;13.13;;
2187;SDS011;1100;52.014;8.540;2022-12-10T08:19:48;34.75;;;13.60;;
2187;SDS011;1100;52.014;8.540;2022-12-10T08:22:15;36.42;;;14.35;;
2187;SDS011;1100;52.014;8.540;2022-12-10T08:24:41;32.83;;;12.63;;
2187;SDS011;1100;52.014;8.540;2022-12-10T08:27:06;31.70;;;12.93;;
2187;SDS011;1100;52.014;8.540;2022-12-10T08:29:31;33.03;;;13.07;;
2187;SDS011;1100;52.014;8.540;2022-12-10T08:31:57;34.03;;;13.17;;
2187;SDS011;1100;52.014;8.540;2022-12-10T08:34:22;31.27;;;12.57;;
2187;SDS011;1100;52.014;8.540;2022-12-10T08:36:47;29.60;;;11.57;;
2187;SDS011;1100;52.014;8.540;2022-12-10T08:39:13;31.53;;;13.03;;
2187;SDS011;1100;52.014;8.540;2022-12-10T08:41:42;32.03;;;12.13;;
2187;SDS011;1100;52.014;8.540;2022-12-10T08:44:11;27.27;;;11.20;;
2187;SDS011;1100;52.014;8.540;2022-12-10T08:46:37;29.45;;;11.65;;
2187;SDS011;1100;52.014;8.540;2022-12-10T08:49:03;22.55;;;9.55;;
2187;SDS011;1100;52.014;8.540;2022-12-10T08:51:29;24.75;;;9.80;;
2187;SDS011;1100;52.014;8.540;2022-12-10T08:53:54;24.10;;;10.13;;
2187;SDS011;1100;52.014;8.540;2022-12-10T08:56:20;25.57;;;11.37;;
2187;SDS011;1100;52.014;8.540;2022-12-10T08:58:45;23.03;;;10.60;;
2187;SDS011;1100;52.014;8.540;2022-12-10T09:01:12;23.13;;;9.50;;
2187;SDS011;1100;52.014;8.540;2022-12-10T09:03:39;22.00;;;10.13;;
2187;SDS011;1100;52.014;8.540;2022-12-10T09:06:05;23.42;;;10.52;;
2187;SDS011;1100;52.014;8.540;2022-12-10T09:08:32;25.03;;;10.63;;
2187;SDS011;1100;52.014;8.540;2022-12-10T09:11:03;29.30;;;11.73;;
2187;SDS011;1100;52.014;8.540;2022-12-10T09:13:30;24.70;;;10.73;;
2187;SDS011;1100;52.014;8.540;2022-12-10T09:15:55;24.13;;;10.30;;
2187;SDS011;1100;52.014;8.540;2022-12-10T09:18:20;31.43;;;10.73;;
2187;SDS011;1100;52.014;8.540;2022-12-10T09:20:46;26.60;;;12.00;;
2187;SDS011;1100;52.014;8.540;2022-12-10T09:23:11;30.45;;;11.77;;
2187;SDS011;1100;52.014;8.540;2022-12-10T09:25:37;28.43;;;11.50;;
2187;SDS011;1100;52.014;8.540;2022-12-10T09:28:02;27.83;;;11.10;;
2187;SDS011;1100;52.014;8.540;2022-12-10T09:30:27;25.70;;;10.83;;
2187;SDS011;1100;52.014;8.540;2022-12-10T09:32:53;26.77;;;10.93;;
2187;SDS011;1100;52.014;8.540;2022-12-10T09:35:18;26.37;;;11.00;;
2187;SDS011;1100;52.014;8.540;2022-12-10T09:37:43;29.60;;;11.53;;
2187;SDS011;1100;52.014;8.540;2022-12-10T09:40:13;21.47;;;9.63;;
2187;SDS011;1100;52.014;8.540;2022-12-10T09:45:32;24.70;;;10.40;;
2187;SDS011;1100;52.014;8.540;2022-12-10T09:53:43;19.33;;;7.63;;
2187;SDS011;1100;52.014;8.540;2022-12-10T09:56:43;16.97;;;7.03;;
2187;SDS011;1100;52.014;8.540;2022-12-10T09:59:19;18.52;;;7.32;;
2187;SDS011;1100;52.014;8.540;2022-12-10T10:01:50;21.42;;;8.43;;
2187;SDS011;1100;52.014;8.540;2022-12-10T10:04:43;24.52;;;9.50;;
2187;SDS011;1100;52.014;8.540;2022-12-10T10:07:10;24.97;;;10.17;;
2187;SDS011;1100;52.014;8.540;2022-12-10T10:09:41;19.20;;;8.35;;
2187;SDS011;1100;52.014;8.540;2022-12-10T10:12:12;20.60;;;8.27;;
2187;SDS011;1100;52.014;8.540;2022-12-10T10:14:39;20.67;;;8.20;;
2187;SDS011;1100;52.014;8.540;2022-12-10T10:17:10;20.10;;;7.95;;
2187;SDS011;1100;52.014;8.540;2022-12-10T10:19:42;22.08;;;8.75;;
2187;SDS011;1100;52.014;8.540;2022-12-10T10:22:09;21.13;;;8.65;;
2187;SDS011;1100;52.014;8.540;2022-12-10T10:24:37;19.43;;;8.30;;
2187;SDS011;1100;52.014;8.540;2022-12-10T10:27:15;22.55;;;9.02;;
2187;SDS011;1100;52.014;8.540;2022-12-10T10:29:43;20.25;;;7.90;;
2187;SDS011;1100;52.014;8.540;2022-12-10T10:32:20;20.52;;;8.23;;
2187;SDS011;1100;52.014;8.540;2022-12-10T10:34:55;23.48;;;9.13;;
2187;SDS011;1100;52.014;8.540;2022-12-10T10:37:26;20.50;;;8.10;;
2187;SDS011;1100;52.014;8.540;2022-12-10T10:39:54;19.38;;;7.43;;
2187;SDS011;1100;52.014;8.540;2022-12-10T10:42:25;18.33;;;7.65;;
2187;SDS011;1100;52.014;8.540;2022-12-10T10:44:59;17.25;;;7.57;;
2187;SDS011;1100;52.014;8.540;2022-12-10T10:47:29;16.98;;;6.95;;
2187;SDS011;1100;52.014;8.540;2022-12-10T10:49:56;15.43;;;5.73;;
2187;SDS011;1100;52.014;8.540;2022-12-10T10:52:23;14.20;;;6.00;;
2187;SDS011;1100;52.014;8.540;2022-12-10T10:54:54;13.05;;;5.20;;
2187;SDS011;1100;52.014;8.540;2022-12-10T10:57:21;14.00;;;6.03;;
2187;SDS011;1100;52.014;8.540;2022-12-10T11:02:45;15.07;;;5.25;;
2187;SDS011;1100;52.014;8.540;2022-12-10T11:05:17;12.53;;;5.63;;
2187;SDS011;1100;52.014;8.540;2022-12-10T11:07:49;12.90;;;4.88;;
2187;SDS011;1100;52.014;8.540;2022-12-10T11:10:23;13.02;;;4.95;;
2187;SDS011;1100;52.014;8.540;2022-12-10T11:12:54;13.95;;;5.50;;
2187;SDS011;1100;52.014;8.540;2022-12-10T11:17:57;15.77;;;5.35;;
2187;SDS011;1100;52.014;8.540;2022-12-10T11:20:24;12.15;;;4.55;;
2187;SDS011;1100;52.014;8.540;2022-12-10T11:22:54;12.88;;;4.75;;
2187;SDS011;1100;52.014;8.540;2022-12-10T11:25:48;13.70;;;4.87;;
2187;SDS011;1100;52.014;8.540;2022-12-10T11:31:49;11.63;;;4.70;;
2187;SDS011;1100;52.014;8.540;2022-12-10T11:42:58;18.42;;;7.80;;
2187;SDS011;1100;52.014;8.540;2022-12-10T11:45:47;14.73;;;6.28;;
2187;SDS011;1100;52.014;8.540;2022-12-10T11:48:38;15.05;;;5.10;;
2187;SDS011;1100;52.014;8.540;2022-12-10T11:54:14;17.17;;;6.70;;
2187;SDS011;1100;52.014;8.540;2022-12-10T11:56:52;22.05;;;10.00;;
2187;SDS011;1100;52.014;8.540;2022-12-10T11:59:36;20.00;;;8.23;;
2187;SDS011;1100;52.014;8.540;2022-12-10T12:07:48;20.33;;;7.80;;
2187;SDS011;1100;52.014;8.540;2022-12-10T12:13:47;16.60;;;6.75;;
2187;SDS011;1100;52.014;8.540;2022-12-10T12:16:24;17.75;;;6.72;;
2187;SDS011;1100;52.014;8.540;2022-12-10T12:21:34;14.97;;;6.00;;
2187;SDS011;1100;52.014;8.540;2022-12-10T12:24:04;17.35;;;7.30;;
2187;SDS011;1100;52.014;8.540;2022-12-10T12:26:38;15.60;;;6.80;;
2187;SDS011;1100;52.014;8.540;2022-12-10T12:32:29;16.65;;;6.60;;
2187;SDS011;1100;52.014;8.540;2022-12-10T12:35:05;15.77;;;6.18;;
2187;SDS011;1100;52.014;8.540;2022-12-10T12:37:36;17.58;;;7.65;;
2187;SDS011;1100;52.014;8.540;2022-12-10T12:42:55;17.70;;;7.13;;
2187;SDS011;1100;52.014;8.540;2022-12-10T12:45:39;20.88;;;7.65;;
2187;SDS011;1100;52.014;8.540;2022-12-10T12:48:12;17.73;;;7.47;;
2187;SDS011;1100;52.014;8.540;2022-12-10T12:50:48;20.83;;;7.53;;
2187;SDS011;1100;52.014;8.540;2022-12-10T12:53:20;19.80;;;8.20;;
2187;SDS011;1100;52.014;8.540;2022-12-10T12:58:36;21.58;;;8.88;;
2187;SDS011;1100;52.014;8.540;2022-12-10T13:04:02;20.33;;;8.50;;
2187;SDS011;1100;52.014;8.540;2022-12-10T13:06:30;21.27;;;8.73;;
2187;SDS011;1100;52.014;8.540;2022-12-10T13:14:36;20.48;;;8.02;;
2187;SDS011;1100;52.014;8.540;2022-12-10T13:19:52;21.07;;;9.27;;
2187;SDS011;1100;52.014;8.540;2022-12-10T13:25:10;20.58;;;8.00;;
2187;SDS011;1100;52.014;8.540;2022-12-10T13:27:41;18.70;;;7.38;;
2187;SDS011;1100;52.014;8.540;2022-12-10T13:30:29;16.63;;;6.85;;
2187;SDS011;1100;52.014;8.540;2022-12-10T13:33:05;18.13;;;7.27;;
2187;SDS011;1100;52.014;8.540;2022-12-10T13:35:43;17.65;;;6.50;;
2187;SDS011;1100;52.014;8.540;2022-12-10T13:38:34;19.02;;;7.90;;
2187;SDS011;1100;52.014;8.540;2022-12-10T13:41:06;18.10;;;7.70;;
2187;SDS011;1100;52.014;8.540;2022-12-10T13:43:57;15.60;;;6.55;;
2187;SDS011;1100;52.014;8.540;2022-12-10T13:46:54;23.20;;;8.10;;
2187;SDS011;1100;52.014;8.540;2022-12-10T13:49:23;20.73;;;8.50;;
2187;SDS011;1100;52.014;8.540;2022-12-10T13:57:05;23.25;;;9.20;;
2187;SDS011;1100;52.014;8.540;2022-12-10T14:08:13;22.90;;;9.30;;
2187;SDS011;1100;52.014;8.540;2022-12-10T14:10:43;19.63;;;9.43;;
2187;SDS011;1100;52.014;8.540;2022-12-10T14:13:11;23.70;;;9.60;;
2187;SDS011;1100;52.014;8.540;2022-12-10T14:15:51;23.10;;;9.00;;
2187;SDS011;1100;52.014;8.540;2022-12-10T14:18:23;23.88;;;8.90;;
2187;SDS011;1100;52.014;8.540;2022-12-10T14:20:50;22.17;;;8.90;;
2187;SDS011;1100;52.014;8.540;2022-12-10T14:23:31;21.43;;;9.23;;
2187;SDS011;1100;52.014;8.540;2022-12-10T14:25:58;21.92;;;8.23;;
2187;SDS011;1100;52.014;8.540;2022-12-10T14:28:29;22.67;;;8.93;;
2187;SDS011;1100;52.014;8.540;2022-12-10T14:30:55;23.83;;;9.30;;
2187;SDS011;1100;52.014;8.540;2022-12-10T14:33:21;21.03;;;9.13;;
2187;SDS011;1100;52.014;8.540;2022-12-10T14:35:50;23.08;;;8.68;;
2187;SDS011;1100;52.014;8.540;2022-12-10T14:38:29;20.13;;;8.82;;
2187;SDS011;1100;52.014;8.540;2022-12-10T14:40:57;18.30;;;7.80;;
2187;SDS011;1100;52.014;8.540;2022-12-10T14:43:25;22.83;;;8.52;;
2187;SDS011;1100;52.014;8.540;2022-12-10T14:45:58;22.02;;;9.25;;
2187;SDS011;1100;52.014;8.540;2022-12-10T14:48:25;19.95;;;8.65;;
2187;SDS011;1100;52.014;8.540;2022-12-10T14:50:52;26.17;;;9.27;;
2187;SDS011;1100;52.014;8.540;2022-12-10T14:53:20;21.60;;;8.67;;
2187;SDS011;1100;52.014;8.540;2022-12-10T14:55:49;20.45;;;8.73;;
2187;SDS011;1100;52.014;8.540;2022-12-10T14:58:27;21.27;;;9.23;;
2187;SDS011;1100;52.014;8.540;2022-12-10T15:00:59;22.08;;;8.95;;
2187;SDS011;1100;52.014;8.540;2022-12-10T15:03:26;20.77;;;8.73;;
2187;SDS011;1100;52.014;8.540;2022-12-10T15:05:55;23.52;;;9.55;;
2187;SDS011;1100;52.014;8.540;2022-12-10T15:08:23;22.25;;;8.80;;
2187;SDS011;1100;52.014;8.540;2022-12-10T15:10:51;23.90;;;8.88;;
2187;SDS011;1100;52.014;8.540;2022-12-10T15:13:24;23.80;;;8.83;;
2187;SDS011;1100;52.014;8.540;2022-12-10T15:15:57;22.92;;;9.10;;
2187;SDS011;1100;52.014;8.540;2022-12-10T15:18:30;21.33;;;8.63;;
2187;SDS011;1100;52.014;8.540;2022-12-10T15:21:11;20.40;;;8.38;;
2187;SDS011;1100;52.014;8.540;2022-12-10T15:23:38;21.88;;;8.57;;
2187;SDS011;1100;52.014;8.540;2022-12-10T15:26:22;22.27;;;8.80;;
2187;SDS011;1100;52.014;8.540;2022-12-10T15:28:50;22.50;;;9.45;;
2187;SDS011;1100;52.014;8.540;2022-12-10T15:41:49;19.65;;;8.45;;
2187;SDS011;1100;52.014;8.540;2022-12-10T15:47:00;23.27;;;8.20;;
2187;SDS011;1100;52.014;8.540;2022-12-10T15:49:27;22.30;;;8.10;;
2187;SDS011;1100;52.014;8.540;2022-12-10T15:51:52;20.98;;;8.07;;
2187;SDS011;1100;52.014;8.540;2022-12-10T15:54:22;22.57;;;8.47;;
2187;SDS011;1100;52.014;8.540;2022-12-10T15:56:54;19.70;;;7.47;;
2187;SDS011;1100;52.014;8.540;2022-12-10T15:59:19;20.40;;;8.20;;
2187;SDS011;1100;52.014;8.540;2022-12-10T16:01:45;19.90;;;7.53;;
2187;SDS011;1100;52.014;8.540;2022-12-10T16:04:10;17.88;;;7.68;;
2187;SDS011;1100;52.014;8.540;2022-12-10T16:06:36;22.20;;;8.57;;
2187;SDS011;1100;52.014;8.540;2022-12-10T16:09:01;20.37;;;8.27;;
2187;SDS011;1100;52.014;8.540;2022-12-10T16:11:27;20.58;;;8.43;;
2187;SDS011;1100;52.014;8.540;2022-12-10T16:13:53;20.38;;;9.05;;
2187;SDS011;1100;52.014;8.540;2022-12-10T16:16:22;16.97;;;7.60;;
2187;SDS011;1100;52.014;8.540;2022-12-10T16:18:48;22.10;;;8.15;;
2187;SDS011;1100;52.014;8.540;2022-12-10T16:21:13;21.53;;;8.63;;
2187;SDS011;1100;52.014;8.540;2022-12-10T16:23:38;23.40;;;9.10;;
2187;SDS011;1100;52.014;8.540;2022-12-10T16:26:22;21.88;;;8.77;;
2187;SDS011;1100;52.014;8.540;2022-12-10T16:28:48;22.38;;;7.97;;
2187;SDS011;1100;52.014;8.540;2022-12-10T16:31:15;23.77;;;9.30;;
2187;SDS011;1100;52.014;8.540;2022-12-10T16:33:42;22.33;;;8.50;;
2187;SDS011;1100;52.014;8.540;2022-12-10T16:36:08;22.25;;;9.07;;
2187;SDS011;1100;52.014;8.540;2022-12-10T16:38:35;22.50;;;8.38;;
2187;SDS011;1100;52.014;8.540;2022-12-10T16:43:47;22.53;;;9.13;;
2187;SDS011;1100;52.014;8.540;2022-12-10T16:46:12;22.77;;;9.20;;
2187;SDS011;1100;52.014;8.540;2022-12-10T16:48:38;20.55;;;8.23;;
2187;SDS011;1100;52.014;8.540;2022-12-10T16:51:05;23.60;;;8.65;;
2187;SDS011;1100;52.014;8.540;2022-12-10T16:53:38;21.40;;;8.77;;
2187;SDS011;1100;52.014;8.540;2022-12-10T16:56:04;24.08;;;8.73;;
2187;SDS011;1100;52.014;8.540;2022-12-10T16:58:30;21.70;;;9.15;;
2187;SDS011;1100;52.014;8.540;2022-12-10T17:00:55;21.90;;;9.57;;
2187;SDS011;1100;52.014;8.540;2022-12-10T17:03:22;22.80;;;9.63;;
2187;SDS011;1100;52.014;8.540;2022-12-10T17:05:50;22.98;;;9.73;;